sensor_id;sensor_type;location;lat;lon;timestamp;pressure;altitude;pressure_sealevel;temperature;humidity
36190;BME280;22232;50.914;13.858;2023-02-23T00:02:00;97484.84;;;7.01;100.00
36190;BME280;22232;50.914;13.858;2023-02-23T00:04:34;97478.75;;;7.00;100.00
36190;BME280;22232;50.914;13.858;2023-02-23T00:07:03;97480.78;;;6.98;100.00
36190;BME280;22232;50.914;13.858;2023-02-23T00:09:32;97476.53;;;6.97;100.00
36190;BME280;22232;50.914;13.858;2023-02-23T00:12:04;97479.56;;;7.01;100.00
36190;BME280;22232;50.914;13.858;2023-02-23T00:14:36;97476.66;;;7.02;100.00
36190;BME280;22232;50.914;13.858;2023-02-23T00:17:05;97474.00;;;7.02;100.00
36190;BME280;22232;50.914;13.858;2023-02-23T00:19:41;97474.25;;;7.01;100.00
36190;BME280;22232;50.914;13.858;2023-02-23T00:22:10;97463.69;;;6.94;100.00
36190;BME280;22232;50.914;13.858;2023-02-23T00:24:39;97469.81;;;6.95;100.00
36190;BME280;22232;50.914;13.858;2023-02-23T00:27:09;97465.09;;;6.97;100.00
36190;BME280;22232;50.914;13.858;2023-02-23T00:29:39;97460.63;;;6.97;100.00
36190;BME280;22232;50.914;13.858;2023-02-23T00:32:06;97460.00;;;6.95;100.00
36190;BME280;22232;50.914;13.858;2023-02-23T00:34:35;97467.66;;;6.85;100.00
36190;BME280;22232;50.914;13.858;2023-02-23T00:37:03;97460.66;;;6.90;100.00
36190;BME280;22232;50.914;13.858;2023-02-23T00:39:31;97462.91;;;6.87;100.00
36190;BME280;22232;50.914;13.858;2023-02-23T00:41:59;97459.88;;;6.83;100.00
36190;BME280;22232;50.914;13.858;2023-02-23T00:44:30;97470.50;;;6.83;100.00
36190;BME280;22232;50.914;13.858;2023-02-23T00:46:59;97467.22;;;6.81;100.00
36190;BME280;22232;50.914;13.858;2023-02-23T00:49:27;97469.69;;;6.83;100.00
36190;BME280;22232;50.914;13.858;2023-02-23T00:51:55;97468.88;;;6.82;100.00
36190;BME280;22232;50.914;13.858;2023-02-23T00:54:22;97472.09;;;6.84;100.00
36190;BME280;22232;50.914;13.858;2023-02-23T00:56:50;97468.44;;;6.85;100.00
36190;BME280;22232;50.914;13.858;2023-02-23T00:59:18;97468.06;;;6.82;100.00
36190;BME280;22232;50.914;13.858;2023-02-23T01:01:46;97475.78;;;6.83;100.00
36190;BME280;22232;50.914;13.858;2023-02-23T01:04:14;97473.38;;;6.82;100.00
36190;BME280;22232;50.914;13.858;2023-02-23T01:06:42;97472.34;;;6.83;100.00
36190;BME280;22232;50.914;13.858;2023-02-23T01:09:14;97469.69;;;6.83;100.00
36190;BME280;22232;50.914;13.858;2023-02-23T01:11:48;97469.03;;;6.87;100.00
36190;BME280;22232;50.914;13.858;2023-02-23T01:14:16;97464.75;;;6.86;100.00
36190;BME280;22232;50.914;13.858;2023-02-23T01:16:44;97455.34;;;6.90;100.00
36190;BME280;22232;50.914;13.858;2023-02-23T01:19:13;97461.91;;;6.88;100.00
36190;BME280;22232;50.914;13.858;2023-02-23T01:21:41;97463.69;;;6.94;100.00
36190;BME280;22232;50.914;13.858;2023-02-23T01:24:10;97463.09;;;6.92;100.00
36190;BME280;22232;50.914;13.858;2023-02-23T01:26:43;97458.22;;;6.89;100.00
36190;BME280;22232;50.914;13.858;2023-02-23T01:29:16;97454.53;;;6.90;100.00
36190;BME280;22232;50.914;13.858;2023-02-23T01:31:46;97456.75;;;6.93;100.00
36190;BME280;22232;50.914;13.858;2023-02-23T01:34:18;97459.19;;;6.95;100.00
36190;BME280;22232;50.914;13.858;2023-02-23T01:36:45;97458.97;;;6.96;100.00
36190;BME280;22232;50.914;13.858;2023-02-23T01:39:17;97449.59;;;6.94;100.00
36190;BME280;22232;50.914;13.858;2023-02-23T01:41:45;97450.59;;;6.99;100.00
36190;BME280;22232;50.914;13.858;2023-02-23T01:46:44;97449.56;;;7.00;100.00
36190;BME280;22232;50.914;13.858;2023-02-23T01:49:19;97441.75;;;7.05;100.00
36190;BME280;22232;50.914;13.858;2023-02-23T01:52:04;97446.63;;;7.08;100.00
36190;BME280;22232;50.914;13.858;2023-02-23T01:54:39;97443.84;;;7.03;100.00
36190;BME280;22232;50.914;13.858;2023-02-23T01:57:11;97435.06;;;7.03;100.00
36190;BME280;22232;50.914;13.858;2023-02-23T01:59:46;97436.91;;;7.02;100.00
36190;BME280;22232;50.914;13.858;2023-02-23T02:02:17;97426.66;;;7.06;100.00
36190;BME280;22232;50.914;13.858;2023-02-23T02:04:46;97416.88;;;7.06;100.00
36190;BME280;22232;50.914;13.858;2023-02-23T02:07:29;97416.03;;;7.12;100.00
36190;BME280;22232;50.914;13.858;2023-02-23T02:09:57;97413.31;;;7.19;100.00
36190;BME280;22232;50.914;13.858;2023-02-23T02:12:43;97410.22;;;7.22;100.00
36190;BME280;22232;50.914;13.858;2023-02-23T02:15:12;97407.50;;;7.29;100.00
36190;BME280;22232;50.914;13.858;2023-02-23T02:17:55;97413.59;;;7.29;100.00
36190;BME280;22232;50.914;13.858;2023-02-23T02:40:01;97405.41;;;7.12;100.00
36190;BME280;22232;50.914;13.858;2023-02-23T02:43:11;97402.16;;;7.10;100.00
36190;BME280;22232;50.914;13.858;2023-02-23T02:45:54;97407.09;;;7.07;100.00
36190;BME280;22232;50.914;13.858;2023-02-23T02:51:40;97410.53;;;7.07;100.00
36190;BME280;22232;50.914;13.858;2023-02-23T02:57:03;97406.72;;;7.03;100.00
36190;BME280;22232;50.914;13.858;2023-02-23T02:59:43;97404.63;;;7.05;100.00
36190;BME280;22232;50.914;13.858;2023-02-23T03:02:31;97405.06;;;7.02;100.00
36190;BME280;22232;50.914;13.858;2023-02-23T03:05:22;97402.66;;;7.01;100.00
36190;BME280;22232;50.914;13.858;2023-02-23T03:11:14;97397.13;;;7.02;100.00
36190;BME280;22232;50.914;13.858;2023-02-23T03:17:24;97397.19;;;6.96;100.00
36190;BME280;22232;50.914;13.858;2023-02-23T03:24:06;97395.34;;;6.96;100.00
36190;BME280;22232;50.914;13.858;2023-02-23T03:26:39;97396.22;;;6.90;100.00
36190;BME280;22232;50.914;13.858;2023-02-23T03:29:38;97390.09;;;6.89;100.00
36190;BME280;22232;50.914;13.858;2023-02-23T03:32:48;97389.50;;;6.87;100.00
36190;BME280;22232;50.914;13.858;2023-02-23T03:35:50;97391.56;;;6.85;100.00
36190;BME280;22232;50.914;13.858;2023-02-23T03:38:44;97388.56;;;6.82;100.00
36190;BME280;22232;50.914;13.858;2023-02-23T03:41:34;97389.41;;;6.76;100.00
36190;BME280;22232;50.914;13.858;2023-02-23T03:44:35;97391.78;;;6.84;100.00
36190;BME280;22232;50.914;13.858;2023-02-23T03:47:28;97385.94;;;6.75;100.00
36190;BME280;22232;50.914;13.858;2023-02-23T03:50:33;97393.13;;;6.68;100.00
36190;BME280;22232;50.914;13.858;2023-02-23T03:56:50;97384.00;;;6.64;100.00
36190;BME280;22232;50.914;13.858;2023-02-23T03:59:51;97398.69;;;6.60;100.00
36190;BME280;22232;50.914;13.858;2023-02-23T04:02:40;97396.88;;;6.60;100.00
36190;BME280;22232;50.914;13.858;2023-02-23T04:05:29;97395.03;;;6.61;100.00
36190;BME280;22232;50.914;13.858;2023-02-23T04:08:17;97397.81;;;6.66;100.00
36190;BME280;22232;50.914;13.858;2023-02-23T04:11:14;97406.25;;;6.56;100.00
36190;BME280;22232;50.914;13.858;2023-02-23T04:14:07;97396.91;;;6.54;100.00
36190;BME280;22232;50.914;13.858;2023-02-23T04:16:40;97393.38;;;6.60;100.00
36190;BME280;22232;50.914;13.858;2023-02-23T04:19:08;97399.91;;;6.64;100.00
36190;BME280;22232;50.914;13.858;2023-02-23T04:21:36;97396.34;;;6.77;100.00
36190;BME280;22232;50.914;13.858;2023-02-23T04:24:03;97396.38;;;6.95;100.00
36190;BME280;22232;50.914;13.858;2023-02-23T04:26:31;97400.22;;;6.99;100.00
36190;BME280;22232;50.914;13.858;2023-02-23T04:28:58;97398.91;;;7.08;100.00
36190;BME280;22232;50.914;13.858;2023-02-23T04:31:26;97392.72;;;7.15;100.00
36190;BME280;22232;50.914;13.858;2023-02-23T04:33:54;97386.41;;;7.16;100.00
36190;BME280;22232;50.914;13.858;2023-02-23T04:36:21;97388.03;;;7.17;100.00
36190;BME280;22232;50.914;13.858;2023-02-23T04:38:51;97391.28;;;7.19;100.00
36190;BME280;22232;50.914;13.858;2023-02-23T04:41:18;97391.28;;;7.19;100.00
36190;BME280;22232;50.914;13.858;2023-02-23T04:43:46;97403.94;;;7.17;100.00
36190;BME280;22232;50.914;13.858;2023-02-23T04:46:14;97404.56;;;7.12;100.00
36190;BME280;22232;50.914;13.858;2023-02-23T04:48:41;97401.56;;;7.08;100.00
36190;BME280;22232;50.914;13.858;2023-02-23T04:51:09;97401.63;;;7.02;100.00
36190;BME280;22232;50.914;13.858;2023-02-23T04:53:37;97396.59;;;6.94;100.00
36190;BME280;22232;50.914;13.858;2023-02-23T04:56:05;97396.16;;;6.97;100.00
36190;BME280;22232;50.914;13.858;2023-02-23T04:58:32;97399.19;;;7.00;100.00
36190;BME280;22232;50.914;13.858;2023-02-23T05:01:04;97399.34;;;7.05;100.00
36190;BME280;22232;50.914;13.858;2023-02-23T05:03:32;97403.78;;;7.11;100.00
36190;BME280;22232;50.914;13.858;2023-02-23T05:06:00;97401.28;;;7.17;100.00
36190;BME280;22232;50.914;13.858;2023-02-23T05:08:28;97403.50;;;7.20;100.00
36190;BME280;22232;50.914;13.858;2023-02-23T05:10:56;97400.84;;;7.20;100.00
36190;BME280;22232;50.914;13.858;2023-02-23T05:13:23;97391.91;;;7.14;100.00
36190;BME280;22232;50.914;13.858;2023-02-23T05:15:55;97395.97;;;7.17;100.00
36190;BME280;22232;50.914;13.858;2023-02-23T05:18:24;97399.72;;;7.09;100.00
36190;BME280;22232;50.914;13.858;2023-02-23T05:20:53;97386.88;;;7.06;100.00
36190;BME280;22232;50.914;13.858;2023-02-23T05:23:27;97386.75;;;7.01;100.00
36190;BME280;22232;50.914;13.858;2023-02-23T05:25:59;97376.94;;;7.01;100.00
36190;BME280;22232;50.914;13.858;2023-02-23T05:28:27;97377.81;;;6.95;100.00
36190;BME280;22232;50.914;13.858;2023-02-23T05:30:55;97382.94;;;6.90;100.00
36190;BME280;22232;50.914;13.858;2023-02-23T05:33:22;97386.47;;;6.84;100.00
36190;BME280;22232;50.914;13.858;2023-02-23T05:35:50;97383.69;;;6.79;100.00
36190;BME280;22232;50.914;13.858;2023-02-23T05:38:17;97375.28;;;6.82;100.00
36190;BME280;22232;50.914;13.858;2023-02-23T05:40:45;97381.22;;;6.77;100.00
36190;BME280;22232;50.914;13.858;2023-02-23T05:43:13;97380.50;;;6.70;100.00
36190;BME280;22232;50.914;13.858;2023-02-23T05:45:47;97382.91;;;6.72;100.00
36190;BME280;22232;50.914;13.858;2023-02-23T05:48:14;97385.19;;;6.68;100.00
36190;BME280;22232;50.914;13.858;2023-02-23T05:50:42;97396.81;;;6.67;100.00
36190;BME280;22232;50.914;13.858;2023-02-23T05:53:09;97407.63;;;6.65;100.00
36190;BME280;22232;50.914;13.858;2023-02-23T05:55:37;97406.81;;;6.65;100.00
36190;BME280;22232;50.914;13.858;2023-02-23T05:58:05;97406.44;;;6.61;100.00
36190;BME280;22232;50.914;13.858;2023-02-23T06:00:33;97408.72;;;6.58;100.00
36190;BME280;22232;50.914;13.858;2023-02-23T06:03:01;97408.34;;;6.54;100.00
36190;BME280;22232;50.914;13.858;2023-02-23T06:05:29;97408.34;;;6.48;100.00
36190;BME280;22232;50.914;13.858;2023-02-23T06:07:57;97407.00;;;6.38;100.00
36190;BME280;22232;50.914;13.858;2023-02-23T06:10:25;97419.84;;;6.35;100.00
36190;BME280;22232;50.914;13.858;2023-02-23T06:12:52;97422.94;;;6.32;100.00
36190;BME280;22232;50.914;13.858;2023-02-23T06:15:20;97419.91;;;6.28;100.00
36190;BME280;22232;50.914;13.858;2023-02-23T06:17:48;97430.69;;;6.27;100.00
36190;BME280;22232;50.914;13.858;2023-02-23T06:20:15;97425.81;;;6.24;100.00
36190;BME280;22232;50.914;13.858;2023-02-23T06:22:43;97426.03;;;6.22;100.00
36190;BME280;22232;50.914;13.858;2023-02-23T06:25:11;97439.25;;;6.29;100.00
36190;BME280;22232;50.914;13.858;2023-02-23T06:27:39;97434.28;;;6.39;100.00
36190;BME280;22232;50.914;13.858;2023-02-23T06:30:08;97434.03;;;6.47;100.00
36190;BME280;22232;50.914;13.858;2023-02-23T06:32:37;97432.44;;;6.46;100.00
36190;BME280;22232;50.914;13.858;2023-02-23T06:35:10;97434.66;;;6.49;100.00
36190;BME280;22232;50.914;13.858;2023-02-23T06:37:38;97434.81;;;6.54;100.00
36190;BME280;22232;50.914;13.858;2023-02-23T06:40:06;97437.63;;;6.59;100.00
36190;BME280;22232;50.914;13.858;2023-02-23T06:42:34;97438.84;;;6.63;100.00
36190;BME280;22232;50.914;13.858;2023-02-23T06:45:03;97425.38;;;6.65;100.00
36190;BME280;22232;50.914;13.858;2023-02-23T06:47:31;97437.44;;;6.61;100.00
36190;BME280;22232;50.914;13.858;2023-02-23T06:49:59;97432.28;;;6.66;100.00
36190;BME280;22232;50.914;13.858;2023-02-23T06:52:28;97435.97;;;6.65;100.00
36190;BME280;22232;50.914;13.858;2023-02-23T06:54:55;97434.91;;;6.73;100.00
36190;BME280;22232;50.914;13.858;2023-02-23T06:57:23;97429.50;;;6.86;100.00
36190;BME280;22232;50.914;13.858;2023-02-23T06:59:51;97434.69;;;6.99;100.00
36190;BME280;22232;50.914;13.858;2023-02-23T07:02:19;97438.63;;;7.15;100.00
36190;BME280;22232;50.914;13.858;2023-02-23T07:04:47;97438.88;;;7.32;100.00
36190;BME280;22232;50.914;13.858;2023-02-23T07:07:15;97434.63;;;7.49;100.00
36190;BME280;22232;50.914;13.858;2023-02-23T07:09:42;97437.16;;;7.63;100.00
36190;BME280;22232;50.914;13.858;2023-02-23T07:12:10;97441.84;;;7.79;100.00
36190;BME280;22232;50.914;13.858;2023-02-23T07:14:38;97442.31;;;7.94;100.00
36190;BME280;22232;50.914;13.858;2023-02-23T07:17:05;97439.78;;;7.99;100.00
36190;BME280;22232;50.914;13.858;2023-02-23T07:19:33;97434.69;;;8.16;100.00
36190;BME280;22232;50.914;13.858;2023-02-23T07:22:01;97435.53;;;8.28;100.00
36190;BME280;22232;50.914;13.858;2023-02-23T07:24:29;97429.47;;;8.40;100.00
36190;BME280;22232;50.914;13.858;2023-02-23T07:26:57;97438.47;;;8.69;100.00
36190;BME280;22232;50.914;13.858;2023-02-23T07:29:24;97432.84;;;9.01;100.00
36190;BME280;22232;50.914;13.858;2023-02-23T07:31:54;97431.50;;;9.22;100.00
36190;BME280;22232;50.914;13.858;2023-02-23T07:34:22;97439.34;;;9.40;100.00
36190;BME280;22232;50.914;13.858;2023-02-23T07:36:49;97434.41;;;9.44;100.00
36190;BME280;22232;50.914;13.858;2023-02-23T07:39:17;97435.88;;;9.63;100.00
36190;BME280;22232;50.914;13.858;2023-02-23T07:41:45;97432.41;;;9.74;100.00
36190;BME280;22232;50.914;13.858;2023-02-23T07:44:18;97433.91;;;9.70;100.00
36190;BME280;22232;50.914;13.858;2023-02-23T07:46:45;97441.19;;;9.86;100.00
36190;BME280;22232;50.914;13.858;2023-02-23T07:49:13;97437.88;;;10.08;100.00
36190;BME280;22232;50.914;13.858;2023-02-23T07:51:41;97438.97;;;10.36;100.00
36190;BME280;22232;50.914;13.858;2023-02-23T07:54:08;97433.53;;;10.59;100.00
36190;BME280;22232;50.914;13.858;2023-02-23T07:56:43;97433.97;;;10.85;100.00
36190;BME280;22232;50.914;13.858;2023-02-23T07:59:11;97430.97;;;10.98;100.00
36190;BME280;22232;50.914;13.858;2023-02-23T08:01:39;97435.84;;;11.01;100.00
36190;BME280;22232;50.914;13.858;2023-02-23T08:04:06;97442.38;;;11.10;100.00
36190;BME280;22232;50.914;13.858;2023-02-23T08:06:34;97440.03;;;10.97;100.00
36190;BME280;22232;50.914;13.858;2023-02-23T08:09:03;97438.97;;;10.98;100.00
36190;BME280;22232;50.914;13.858;2023-02-23T08:11:31;97442.78;;;10.68;100.00
36190;BME280;22232;50.914;13.858;2023-02-23T08:13:58;97450.69;;;10.80;100.00
36190;BME280;22232;50.914;13.858;2023-02-23T08:16:28;97442.94;;;10.78;100.00
36190;BME280;22232;50.914;13.858;2023-02-23T08:18:57;97446.16;;;10.64;100.00
36190;BME280;22232;50.914;13.858;2023-02-23T08:21:26;97453.50;;;10.73;100.00
36190;BME280;22232;50.914;13.858;2023-02-23T08:23:56;97451.97;;;10.61;100.00
36190;BME280;22232;50.914;13.858;2023-02-23T08:26:24;97449.88;;;10.63;100.00
36190;BME280;22232;50.914;13.858;2023-02-23T08:28:53;97451.31;;;10.70;100.00
36190;BME280;22232;50.914;13.858;2023-02-23T08:31:21;97454.41;;;10.62;100.00
36190;BME280;22232;50.914;13.858;2023-02-23T08:33:52;97449.88;;;10.63;100.00
36190;BME280;22232;50.914;13.858;2023-02-23T08:36:20;97452.97;;;10.71;100.00
36190;BME280;22232;50.914;13.858;2023-02-23T08:38:47;97452.81;;;10.78;100.00
36190;BME280;22232;50.914;13.858;2023-02-23T08:41:16;97452.25;;;10.93;100.00
36190;BME280;22232;50.914;13.858;2023-02-23T08:43:44;97454.19;;;10.97;100.00
36190;BME280;22232;50.914;13.858;2023-02-23T08:46:12;97454.44;;;10.96;100.00
36190;BME280;22232;50.914;13.858;2023-02-23T08:48:39;97447.78;;;10.98;100.00
36190;BME280;22232;50.914;13.858;2023-02-23T08:51:08;97456.53;;;11.11;100.00
36190;BME280;22232;50.914;13.858;2023-02-23T08:53:35;97455.09;;;11.20;100.00
36190;BME280;22232;50.914;13.858;2023-02-23T08:56:04;97455.59;;;11.17;100.00
36190;BME280;22232;50.914;13.858;2023-02-23T08:58:34;97459.63;;;11.19;100.00
36190;BME280;22232;50.914;13.858;2023-02-23T09:01:03;97461.88;;;10.94;100.00
36190;BME280;22232;50.914;13.858;2023-02-23T09:03:31;97458.41;;;10.93;100.00
36190;BME280;22232;50.914;13.858;2023-02-23T09:06:09;97451.44;;;11.09;100.00
36190;BME280;22232;50.914;13.858;2023-02-23T09:08:37;97450.56;;;11.20;100.00
36190;BME280;22232;50.914;13.858;2023-02-23T09:11:05;97456.06;;;11.31;100.00
36190;BME280;22232;50.914;13.858;2023-02-23T09:13:33;97447.06;;;11.37;100.00
36190;BME280;22232;50.914;13.858;2023-02-23T09:16:08;97448.34;;;11.51;100.00
36190;BME280;22232;50.914;13.858;2023-02-23T09:18:39;97448.22;;;11.80;100.00
36190;BME280;22232;50.914;13.858;2023-02-23T09:21:10;97451.09;;;11.95;100.00
36190;BME280;22232;50.914;13.858;2023-02-23T09:23:45;97454.97;;;12.04;100.00
36190;BME280;22232;50.914;13.858;2023-02-23T09:26:14;97451.94;;;12.18;100.00
36190;BME280;22232;50.914;13.858;2023-02-23T09:28:45;97449.97;;;12.35;100.00
36190;BME280;22232;50.914;13.858;2023-02-23T09:31:16;97456.81;;;12.26;100.00
36190;BME280;22232;50.914;13.858;2023-02-23T09:33:45;97453.72;;;12.34;100.00
36190;BME280;22232;50.914;13.858;2023-02-23T09:36:16;97449.78;;;12.42;100.00
36190;BME280;22232;50.914;13.858;2023-02-23T09:38:46;97457.34;;;12.50;100.00
36190;BME280;22232;50.914;13.858;2023-02-23T09:41:40;97459.44;;;12.43;100.00
36190;BME280;22232;50.914;13.858;2023-02-23T09:49:30;97448.00;;;12.03;100.00
36190;BME280;22232;50.914;13.858;2023-02-23T09:52:02;97456.25;;;12.02;100.00
36190;BME280;22232;50.914;13.858;2023-02-23T09:54:32;97450.38;;;12.22;100.00
36190;BME280;22232;50.914;13.858;2023-02-23T09:57:03;97451.97;;;12.45;100.00
36190;BME280;22232;50.914;13.858;2023-02-23T09:59:33;97456.81;;;12.26;100.00
36190;BME280;22232;50.914;13.858;2023-02-23T10:02:09;97456.00;;;12.47;100.00
36190;BME280;22232;50.914;13.858;2023-02-23T10:04:59;97459.19;;;12.71;100.00
36190;BME280;22232;50.914;13.858;2023-02-23T10:07:45;97465.34;;;12.72;100.00
36190;BME280;22232;50.914;13.858;2023-02-23T10:13:55;97462.94;;;13.02;100.00
36190;BME280;22232;50.914;13.858;2023-02-23T10:21:53;97454.59;;;13.26;100.00
36190;BME280;22232;50.914;13.858;2023-02-23T10:27:36;97449.13;;;13.43;100.00
36190;BME280;22232;50.914;13.858;2023-02-23T10:30:15;97450.28;;;13.62;100.00
36190;BME280;22232;50.914;13.858;2023-02-23T10:32:57;97442.91;;;13.80;100.00
36190;BME280;22232;50.914;13.858;2023-02-23T10:35:28;97444.25;;;13.87;100.00
36190;BME280;22232;50.914;13.858;2023-02-23T10:37:57;97445.94;;;13.98;100.00
36190;BME280;22232;50.914;13.858;2023-02-23T10:40:29;97442.94;;;13.90;100.00
36190;BME280;22232;50.914;13.858;2023-02-23T10:43:01;97441.47;;;14.19;100.00
36190;BME280;22232;50.914;13.858;2023-02-23T10:45:34;97441.25;;;14.36;100.00
36190;BME280;22232;50.914;13.858;2023-02-23T10:48:06;97431.28;;;14.21;100.00
36190;BME280;22232;50.914;13.858;2023-02-23T10:50:36;97432.03;;;14.12;100.00
36190;BME280;22232;50.914;13.858;2023-02-23T10:53:32;97437.13;;;14.08;100.00
36190;BME280;22232;50.914;13.858;2023-02-23T10:58:48;97422.34;;;14.06;100.00
36190;BME280;22232;50.914;13.858;2023-02-23T11:01:33;97424.03;;;14.17;100.00
36190;BME280;22232;50.914;13.858;2023-02-23T11:04:30;97420.84;;;14.25;100.00
36190;BME280;22232;50.914;13.858;2023-02-23T11:09:35;97425.63;;;14.13;100.00
36190;BME280;22232;50.914;13.858;2023-02-23T11:12:24;97418.41;;;14.23;100.00
36190;BME280;22232;50.914;13.858;2023-02-23T11:14:55;97413.28;;;14.07;100.00
36190;BME280;22232;50.914;13.858;2023-02-23T11:17:30;97412.25;;;14.28;100.00
36190;BME280;22232;50.914;13.858;2023-02-23T11:20:24;97404.16;;;14.18;100.00
36190;BME280;22232;50.914;13.858;2023-02-23T11:22:54;97402.34;;;14.34;100.00
36190;BME280;22232;50.914;13.858;2023-02-23T11:25:36;97402.88;;;14.36;100.00
36190;BME280;22232;50.914;13.858;2023-02-23T11:28:04;97404.66;;;14.05;100.00
36190;BME280;22232;50.914;13.858;2023-02-23T11:30:35;97403.13;;;14.24;100.00
36190;BME280;22232;50.914;13.858;2023-02-23T11:33:04;97401.75;;;14.11;100.00
36190;BME280;22232;50.914;13.858;2023-02-23T11:35:37;97393.44;;;14.18;100.00
36190;BME280;22232;50.914;13.858;2023-02-23T11:38:34;97389.69;;;14.24;100.00
36190;BME280;22232;50.914;13.858;2023-02-23T11:41:22;97388.13;;;14.28;100.00
36190;BME280;22232;50.914;13.858;2023-02-23T11:43:56;97390.53;;;14.35;100.00
36190;BME280;22232;50.914;13.858;2023-02-23T11:46:25;97390.81;;;14.28;100.00
36190;BME280;22232;50.914;13.858;2023-02-23T11:49:05;97387.59;;;14.36;100.00
36190;BME280;22232;50.914;13.858;2023-02-23T11:51:46;97382.53;;;14.50;100.00
36190;BME280;22232;50.914;13.858;2023-02-23T11:54:26;97371.56;;;14.52;100.00
36190;BME280;22232;50.914;13.858;2023-02-23T11:56:55;97371.25;;;14.43;100.00
36190;BME280;22232;50.914;13.858;2023-02-23T11:59:32;97366.66;;;14.28;100.00
36190;BME280;22232;50.914;13.858;2023-02-23T12:02:22;97367.47;;;14.34;100.00
36190;BME280;22232;50.914;13.858;2023-02-23T12:05:20;97360.44;;;14.17;100.00
36190;BME280;22232;50.914;13.858;2023-02-23T12:10:43;97368.16;;;13.93;100.00
36190;BME280;22232;50.914;13.858;2023-02-23T12:13:34;97355.53;;;13.79;100.00
36190;BME280;22232;50.914;13.858;2023-02-23T12:24:27;97354.97;;;13.76;100.00
36190;BME280;22232;50.914;13.858;2023-02-23T12:27:41;97349.97;;;14.00;100.00
36190;BME280;22232;50.914;13.858;2023-02-23T12:32:45;97352.38;;;14.07;100.00
36190;BME280;22232;50.914;13.858;2023-02-23T12:35:24;97351.59;;;14.12;100.00
36190;BME280;22232;50.914;13.858;2023-02-23T12:38:07;97350.50;;;14.03;100.00
36190;BME280;22232;50.914;13.858;2023-02-23T12:40:40;97344.63;;;14.16;100.00
36190;BME280;22232;50.914;13.858;2023-02-23T12:43:15;97344.38;;;14.12;100.00
36190;BME280;22232;50.914;13.858;2023-02-23T12:48:51;97342.78;;;14.21;100.00
36190;BME280;22232;50.914;13.858;2023-02-23T12:51:40;97338.22;;;14.32;100.00
36190;BME280;22232;50.914;13.858;2023-02-23T12:54:11;97343.06;;;14.51;100.00
36190;BME280;22232;50.914;13.858;2023-02-23T13:06:11;97332.38;;;14.66;100.00
36190;BME280;22232;50.914;13.858;2023-02-23T13:11:47;97332.03;;;14.16;100.00
36190;BME280;22232;50.914;13.858;2023-02-23T13:14:38;97325.03;;;14.05;100.00
36190;BME280;22232;50.914;13.858;2023-02-23T13:17:31;97326.38;;;14.18;100.00
36190;BME280;22232;50.914;13.858;2023-02-23T13:20:29;97320.75;;;14.04;100.00
36190;BME280;22232;50.914;13.858;2023-02-23T13:28:22;97314.31;;;14.10;100.00
36190;BME280;22232;50.914;13.858;2023-02-23T13:30:54;97315.88;;;13.86;100.00
36190;BME280;22232;50.914;13.858;2023-02-23T13:33:28;97311.50;;;13.69;100.00
36190;BME280;22232;50.914;13.858;2023-02-23T13:36:10;97313.66;;;13.72;100.00
36190;BME280;22232;50.914;13.858;2023-02-23T13:38:45;97319.56;;;13.74;100.00
36190;BME280;22232;50.914;13.858;2023-02-23T13:44:16;97320.38;;;13.75;100.00
36190;BME280;22232;50.914;13.858;2023-02-23T13:47:02;97317.16;;;13.78;100.00
36190;BME280;22232;50.914;13.858;2023-02-23T13:49:49;97321.22;;;13.86;100.00
36190;BME280;22232;50.914;13.858;2023-02-23T13:52:40;97318.56;;;13.86;100.00
36190;BME280;22232;50.914;13.858;2023-02-23T13:58:20;97316.34;;;13.67;100.00
36190;BME280;22232;50.914;13.858;2023-02-23T14:01:02;97325.75;;;13.70;100.00
36190;BME280;22232;50.914;13.858;2023-02-23T14:03:39;97321.56;;;13.37;100.00
36190;BME280;22232;50.914;13.858;2023-02-23T14:06:11;97323.44;;;13.41;100.00
36190;BME280;22232;50.914;13.858;2023-02-23T14:08:41;97322.16;;;13.54;100.00
36190;BME280;22232;50.914;13.858;2023-02-23T14:11:27;97326.41;;;13.40;100.00
36190;BME280;22232;50.914;13.858;2023-02-23T14:13:59;97322.25;;;13.22;100.00
36190;BME280;22232;50.914;13.858;2023-02-23T14:16:28;97321.84;;;13.40;100.00
36190;BME280;22232;50.914;13.858;2023-02-23T14:19:35;97318.44;;;13.55;100.00
36190;BME280;22232;50.914;13.858;2023-02-23T14:22:16;97320.06;;;13.66;100.00
36190;BME280;22232;50.914;13.858;2023-02-23T14:27:58;97322.44;;;13.52;100.00
36190;BME280;22232;50.914;13.858;2023-02-23T14:30:47;97312.50;;;13.48;100.00
36190;BME280;22232;50.914;13.858;2023-02-23T14:33:49;97310.19;;;13.19;100.00
36190;BME280;22232;50.914;13.858;2023-02-23T14:41:48;97316.44;;;12.55;100.00
36190;BME280;22232;50.914;13.858;2023-02-23T14:44:27;97318.88;;;12.57;100.00
36190;BME280;22232;50.914;13.858;2023-02-23T14:47:15;97307.69;;;12.65;100.00
36190;BME280;22232;50.914;13.858;2023-02-23T14:50:05;97317.06;;;12.68;100.00
36190;BME280;22232;50.914;13.858;2023-02-23T14:52:40;97312.56;;;12.41;100.00
36190;BME280;22232;50.914;13.858;2023-02-23T14:57:41;97325.06;;;12.30;100.00
36190;BME280;22232;50.914;13.858;2023-02-23T15:00:24;97320.00;;;12.34;100.00
36190;BME280;22232;50.914;13.858;2023-02-23T15:02:58;97314.66;;;12.34;100.00
36190;BME280;22232;50.914;13.858;2023-02-23T15:05:48;97309.63;;;12.10;100.00
36190;BME280;22232;50.914;13.858;2023-02-23T15:08:24;97314.72;;;12.12;100.00
36190;BME280;22232;50.914;13.858;2023-02-23T15:11:12;97306.94;;;12.10;100.00
36190;BME280;22232;50.914;13.858;2023-02-23T15:13:44;97313.09;;;12.11;100.00
36190;BME280;22232;50.914;13.858;2023-02-23T15:16:27;97315.22;;;12.09;100.00
36190;BME280;22232;50.914;13.858;2023-02-23T15:18:58;97309.59;;;12.05;100.00